sensor_id;sensor_type;location;lat;lon;timestamp;pressure;altitude;pressure_sealevel;temperature;humidity
58662;BME280;44432;49.786;22.760;2023-05-19T00:01:19;100216.36;;;9.15;95.51
58662;BME280;44432;49.786;22.760;2023-05-19T00:03:51;100218.42;;;9.15;95.45
58662;BME280;44432;49.786;22.760;2023-05-19T00:06:25;100215.92;;;9.15;95.66
58662;BME280;44432;49.786;22.760;2023-05-19T00:08:59;100215.60;;;9.18;95.79
58662;BME280;44432;49.786;22.760;2023-05-19T00:11:31;100217.06;;;9.21;95.82
58662;BME280;44432;49.786;22.760;2023-05-19T00:14:07;100223.05;;;9.24;95.76
58662;BME280;44432;49.786;22.760;2023-05-19T00:16:38;100216.91;;;9.25;95.68
58662;BME280;44432;49.786;22.760;2023-05-19T00:19:10;100217.20;;;9.27;95.68
58662;BME280;44432;49.786;22.760;2023-05-19T00:21:41;100212.38;;;9.28;95.64
58662;BME280;44432;49.786;22.760;2023-05-19T00:24:12;100213.63;;;9.31;95.49
58662;BME280;44432;49.786;22.760;2023-05-19T00:26:42;100211.17;;;9.32;95.47
58662;BME280;44432;49.786;22.760;2023-05-19T00:29:13;100208.77;;;9.30;95.04
58662;BME280;44432;49.786;22.760;2023-05-19T00:31:46;100209.34;;;9.28;95.25
58662;BME280;44432;49.786;22.760;2023-05-19T00:34:17;100204.00;;;9.29;95.37
58662;BME280;44432;49.786;22.760;2023-05-19T00:36:48;100203.02;;;9.25;94.94
58662;BME280;44432;49.786;22.760;2023-05-19T00:39:18;100201.29;;;9.21;94.96
58662;BME280;44432;49.786;22.760;2023-05-19T00:41:49;100201.02;;;9.18;95.13
58662;BME280;44432;49.786;22.760;2023-05-19T00:44:19;100202.82;;;9.18;95.33
58662;BME280;44432;49.786;22.760;2023-05-19T00:46:50;100205.88;;;9.16;95.26
58662;BME280;44432;49.786;22.760;2023-05-19T00:49:21;100202.86;;;9.14;95.50
58662;BME280;44432;49.786;22.760;2023-05-19T00:51:52;100202.30;;;9.15;95.78
58662;BME280;44432;49.786;22.760;2023-05-19T00:54:22;100203.89;;;9.16;95.63
58662;BME280;44432;49.786;22.760;2023-05-19T00:56:54;100204.77;;;9.15;95.55
58662;BME280;44432;49.786;22.760;2023-05-19T00:59:26;100204.44;;;9.12;95.47
58662;BME280;44432;49.786;22.760;2023-05-19T01:01:57;100203.77;;;9.11;95.67
58662;BME280;44432;49.786;22.760;2023-05-19T01:04:28;100204.70;;;9.11;95.76
58662;BME280;44432;49.786;22.760;2023-05-19T01:07:03;100211.66;;;9.13;95.88
58662;BME280;44432;49.786;22.760;2023-05-19T01:09:34;100205.73;;;9.14;95.82
58662;BME280;44432;49.786;22.760;2023-05-19T01:12:06;100200.45;;;9.14;95.85
58662;BME280;44432;49.786;22.760;2023-05-19T01:14:37;100198.23;;;9.14;95.82
58662;BME280;44432;49.786;22.760;2023-05-19T01:17:16;100194.06;;;9.15;95.82
58662;BME280;44432;49.786;22.760;2023-05-19T01:19:56;100201.86;;;9.15;95.85
58662;BME280;44432;49.786;22.760;2023-05-19T01:22:49;100197.52;;;9.18;96.25
58662;BME280;44432;49.786;22.760;2023-05-19T01:25:38;100194.64;;;9.21;96.18
58662;BME280;44432;49.786;22.760;2023-05-19T01:31:25;100197.94;;;9.22;95.90
58662;BME280;44432;49.786;22.760;2023-05-19T01:33:57;100199.10;;;9.22;95.77
58662;BME280;44432;49.786;22.760;2023-05-19T01:36:29;100196.47;;;9.22;95.91
58662;BME280;44432;49.786;22.760;2023-05-19T01:39:02;100197.05;;;9.22;96.08
58662;BME280;44432;49.786;22.760;2023-05-19T01:41:33;100196.94;;;9.23;96.09
58662;BME280;44432;49.786;22.760;2023-05-19T01:44:04;100195.27;;;9.22;95.88
58662;BME280;44432;49.786;22.760;2023-05-19T01:46:35;100194.73;;;9.22;96.04
58662;BME280;44432;49.786;22.760;2023-05-19T01:49:06;100195.11;;;9.23;95.88
58662;BME280;44432;49.786;22.760;2023-05-19T01:51:37;100195.23;;;9.20;95.76
58662;BME280;44432;49.786;22.760;2023-05-19T01:54:08;100192.21;;;9.19;95.83
58662;BME280;44432;49.786;22.760;2023-05-19T01:56:44;100194.20;;;9.18;95.81
58662;BME280;44432;49.786;22.760;2023-05-19T01:59:26;100190.96;;;9.16;95.72
58662;BME280;44432;49.786;22.760;2023-05-19T02:02:04;100190.30;;;9.13;95.71
58662;BME280;44432;49.786;22.760;2023-05-19T02:04:53;100189.63;;;9.11;95.85
58662;BME280;44432;49.786;22.760;2023-05-19T02:07:33;100195.11;;;9.12;96.18
58662;BME280;44432;49.786;22.760;2023-05-19T02:10:13;100192.34;;;9.13;96.29
58662;BME280;44432;49.786;22.760;2023-05-19T02:12:46;100191.98;;;9.14;96.37
58662;BME280;44432;49.786;22.760;2023-05-19T02:15:23;100190.44;;;9.16;96.30
58662;BME280;44432;49.786;22.760;2023-05-19T02:17:55;100191.45;;;9.16;96.21
58662;BME280;44432;49.786;22.760;2023-05-19T02:20:26;100194.41;;;9.13;95.83
58662;BME280;44432;49.786;22.760;2023-05-19T02:22:57;100201.10;;;9.10;95.75
58662;BME280;44432;49.786;22.760;2023-05-19T02:25:28;100196.40;;;9.08;96.00
58662;BME280;44432;49.786;22.760;2023-05-19T02:27:59;100199.33;;;9.09;96.00
58662;BME280;44432;49.786;22.760;2023-05-19T02:30:30;100197.95;;;9.09;96.05
58662;BME280;44432;49.786;22.760;2023-05-19T02:33:00;100198.26;;;9.08;95.85
58662;BME280;44432;49.786;22.760;2023-05-19T02:35:31;100195.36;;;9.04;95.66
58662;BME280;44432;49.786;22.760;2023-05-19T02:38:02;100196.20;;;9.00;95.68
58662;BME280;44432;49.786;22.760;2023-05-19T02:40:32;100199.39;;;9.00;95.98
58662;BME280;44432;49.786;22.760;2023-05-19T02:43:03;100200.67;;;8.99;96.04
58662;BME280;44432;49.786;22.760;2023-05-19T02:45:34;100202.55;;;9.00;96.15
58662;BME280;44432;49.786;22.760;2023-05-19T02:48:05;100201.52;;;9.01;96.28
58662;BME280;44432;49.786;22.760;2023-05-19T02:50:35;100201.35;;;9.01;96.10
58662;BME280;44432;49.786;22.760;2023-05-19T02:53:06;100200.30;;;9.01;96.19
58662;BME280;44432;49.786;22.760;2023-05-19T02:55:37;100197.23;;;9.01;96.20
58662;BME280;44432;49.786;22.760;2023-05-19T02:58:07;100202.39;;;9.05;96.36
58662;BME280;44432;49.786;22.760;2023-05-19T03:00:38;100205.29;;;9.09;96.53
58662;BME280;44432;49.786;22.760;2023-05-19T03:03:08;100205.23;;;9.11;96.36
58662;BME280;44432;49.786;22.760;2023-05-19T03:05:39;100203.29;;;9.11;95.99
58662;BME280;44432;49.786;22.760;2023-05-19T03:08:10;100206.58;;;9.11;95.82
58662;BME280;44432;49.786;22.760;2023-05-19T03:10:40;100206.56;;;9.13;96.03
58662;BME280;44432;49.786;22.760;2023-05-19T03:13:11;100209.23;;;9.16;95.98
58662;BME280;44432;49.786;22.760;2023-05-19T03:15:42;100209.33;;;9.20;96.12
58662;BME280;44432;49.786;22.760;2023-05-19T03:18:13;100207.46;;;9.22;95.99
58662;BME280;44432;49.786;22.760;2023-05-19T03:20:44;100211.16;;;9.25;95.98
58662;BME280;44432;49.786;22.760;2023-05-19T03:23:15;100212.45;;;9.27;95.86
58662;BME280;44432;49.786;22.760;2023-05-19T03:25:46;100216.02;;;9.30;95.83
58662;BME280;44432;49.786;22.760;2023-05-19T03:28:16;100219.70;;;9.33;95.64
58662;BME280;44432;49.786;22.760;2023-05-19T03:30:47;100214.55;;;9.33;95.32
58662;BME280;44432;49.786;22.760;2023-05-19T03:33:18;100215.46;;;9.34;95.18
58662;BME280;44432;49.786;22.760;2023-05-19T03:35:49;100216.45;;;9.36;95.19
58662;BME280;44432;49.786;22.760;2023-05-19T03:38:21;100217.21;;;9.37;95.13
58662;BME280;44432;49.786;22.760;2023-05-19T03:40:51;100212.64;;;9.37;95.15
58662;BME280;44432;49.786;22.760;2023-05-19T03:43:22;100210.80;;;9.39;95.12
58662;BME280;44432;49.786;22.760;2023-05-19T03:45:53;100209.61;;;9.42;95.18
58662;BME280;44432;49.786;22.760;2023-05-19T03:48:24;100209.25;;;9.45;95.28
58662;BME280;44432;49.786;22.760;2023-05-19T03:50:55;100204.73;;;9.46;95.13
58662;BME280;44432;49.786;22.760;2023-05-19T03:53:26;100204.92;;;9.49;94.90
58662;BME280;44432;49.786;22.760;2023-05-19T03:55:58;100208.31;;;9.53;94.96
58662;BME280;44432;49.786;22.760;2023-05-19T03:58:29;100207.81;;;9.56;94.76
58662;BME280;44432;49.786;22.760;2023-05-19T04:00:59;100212.42;;;9.58;94.66
58662;BME280;44432;49.786;22.760;2023-05-19T04:03:30;100213.11;;;9.60;94.52
58662;BME280;44432;49.786;22.760;2023-05-19T04:06:01;100214.65;;;9.57;94.13
58662;BME280;44432;49.786;22.760;2023-05-19T04:08:31;100216.99;;;9.57;94.31
58662;BME280;44432;49.786;22.760;2023-05-19T04:11:02;100225.35;;;9.60;94.46
58662;BME280;44432;49.786;22.760;2023-05-19T04:13:33;100221.84;;;9.61;94.25
58662;BME280;44432;49.786;22.760;2023-05-19T04:16:04;100224.38;;;9.60;93.80
58662;BME280;44432;49.786;22.760;2023-05-19T04:18:35;100226.23;;;9.59;93.93
58662;BME280;44432;49.786;22.760;2023-05-19T04:21:06;100231.36;;;9.60;93.92
58662;BME280;44432;49.786;22.760;2023-05-19T04:23:36;100231.25;;;9.61;94.03
58662;BME280;44432;49.786;22.760;2023-05-19T04:26:07;100230.36;;;9.64;94.17
58662;BME280;44432;49.786;22.760;2023-05-19T04:28:38;100230.89;;;9.67;94.06
58662;BME280;44432;49.786;22.760;2023-05-19T04:31:10;100233.38;;;9.68;93.82
58662;BME280;44432;49.786;22.760;2023-05-19T04:33:42;100230.27;;;9.69;93.77
58662;BME280;44432;49.786;22.760;2023-05-19T04:36:13;100234.05;;;9.74;93.68
58662;BME280;44432;49.786;22.760;2023-05-19T04:38:45;100241.48;;;9.81;93.78
58662;BME280;44432;49.786;22.760;2023-05-19T04:41:16;100240.04;;;9.89;93.70
58662;BME280;44432;49.786;22.760;2023-05-19T04:43:47;100239.64;;;9.99;93.58
58662;BME280;44432;49.786;22.760;2023-05-19T04:46:18;100231.82;;;10.07;93.23
58662;BME280;44432;49.786;22.760;2023-05-19T04:48:52;100233.09;;;10.20;93.36
58662;BME280;44432;49.786;22.760;2023-05-19T04:51:25;100234.98;;;10.33;93.37
58662;BME280;44432;49.786;22.760;2023-05-19T04:53:59;100234.90;;;10.44;92.99
58662;BME280;44432;49.786;22.760;2023-05-19T04:56:30;100231.64;;;10.56;92.96
58662;BME280;44432;49.786;22.760;2023-05-19T04:59:00;100231.64;;;10.69;92.59
58662;BME280;44432;49.786;22.760;2023-05-19T05:01:31;100234.48;;;10.78;92.05
58662;BME280;44432;49.786;22.760;2023-05-19T05:04:02;100234.85;;;10.88;92.16
58662;BME280;44432;49.786;22.760;2023-05-19T05:06:32;100232.61;;;10.97;91.86
58662;BME280;44432;49.786;22.760;2023-05-19T05:09:06;100235.21;;;11.02;91.36
58662;BME280;44432;49.786;22.760;2023-05-19T05:11:39;100233.11;;;10.99;90.73
58662;BME280;44432;49.786;22.760;2023-05-19T05:14:11;100235.87;;;10.98;90.65
58662;BME280;44432;49.786;22.760;2023-05-19T05:16:42;100236.91;;;10.96;90.32
58662;BME280;44432;49.786;22.760;2023-05-19T05:19:14;100232.36;;;10.91;90.13
58662;BME280;44432;49.786;22.760;2023-05-19T05:21:46;100234.31;;;10.92;90.12
58662;BME280;44432;49.786;22.760;2023-05-19T05:24:18;100232.38;;;10.94;90.24
58662;BME280;44432;49.786;22.760;2023-05-19T05:26:50;100232.80;;;10.95;90.39
58662;BME280;44432;49.786;22.760;2023-05-19T05:29:21;100234.77;;;10.96;90.32
58662;BME280;44432;49.786;22.760;2023-05-19T05:31:52;100236.80;;;10.96;90.40
58662;BME280;44432;49.786;22.760;2023-05-19T05:34:22;100241.42;;;10.96;90.31
58662;BME280;44432;49.786;22.760;2023-05-19T05:36:53;100244.12;;;10.97;90.38
58662;BME280;44432;49.786;22.760;2023-05-19T05:39:24;100241.75;;;10.96;90.13
58662;BME280;44432;49.786;22.760;2023-05-19T05:41:56;100251.45;;;10.99;90.24
58662;BME280;44432;49.786;22.760;2023-05-19T05:44:26;100249.81;;;10.98;90.05
58662;BME280;44432;49.786;22.760;2023-05-19T05:46:58;100247.69;;;10.95;89.93
58662;BME280;44432;49.786;22.760;2023-05-19T05:49:30;100248.02;;;10.93;90.10
58662;BME280;44432;49.786;22.760;2023-05-19T05:52:01;100247.36;;;10.88;89.65
58662;BME280;44432;49.786;22.760;2023-05-19T05:54:33;100245.63;;;10.83;89.50
58662;BME280;44432;49.786;22.760;2023-05-19T05:57:05;100245.48;;;10.80;89.65
58662;BME280;44432;49.786;22.760;2023-05-19T05:59:36;100250.75;;;10.75;89.20
58662;BME280;44432;49.786;22.760;2023-05-19T06:02:07;100250.20;;;10.68;89.06
58662;BME280;44432;49.786;22.760;2023-05-19T06:04:37;100254.89;;;10.64;89.14
58662;BME280;44432;49.786;22.760;2023-05-19T06:07:08;100255.88;;;10.62;89.41
58662;BME280;44432;49.786;22.760;2023-05-19T06:09:39;100254.35;;;10.60;89.56
58662;BME280;44432;49.786;22.760;2023-05-19T06:12:10;100258.73;;;10.59;89.52
58662;BME280;44432;49.786;22.760;2023-05-19T06:14:40;100261.72;;;10.58;89.33
58662;BME280;44432;49.786;22.760;2023-05-19T06:17:11;100260.39;;;10.55;89.17
58662;BME280;44432;49.786;22.760;2023-05-19T06:19:41;100261.80;;;10.54;89.22
58662;BME280;44432;49.786;22.760;2023-05-19T06:22:12;100259.70;;;10.51;88.93
58662;BME280;44432;49.786;22.760;2023-05-19T06:24:43;100267.20;;;10.50;88.95
58662;BME280;44432;49.786;22.760;2023-05-19T06:27:13;100270.73;;;10.44;88.67
58662;BME280;44432;49.786;22.760;2023-05-19T06:29:44;100272.16;;;10.39;88.86
58662;BME280;44432;49.786;22.760;2023-05-19T06:32:15;100276.90;;;10.40;89.29
58662;BME280;44432;49.786;22.760;2023-05-19T06:34:45;100278.13;;;10.45;89.65
58662;BME280;44432;49.786;22.760;2023-05-19T06:37:22;100276.64;;;10.51;89.65
58662;BME280;44432;49.786;22.760;2023-05-19T06:39:53;100279.25;;;10.55;89.77
58662;BME280;44432;49.786;22.760;2023-05-19T06:42:24;100277.04;;;10.57;89.53
58662;BME280;44432;49.786;22.760;2023-05-19T06:44:55;100281.72;;;10.62;89.21
58662;BME280;44432;49.786;22.760;2023-05-19T06:47:26;100278.72;;;10.64;89.09
58662;BME280;44432;49.786;22.760;2023-05-19T06:49:57;100281.95;;;10.66;88.78
58662;BME280;44432;49.786;22.760;2023-05-19T06:52:27;100279.28;;;10.63;88.62
58662;BME280;44432;49.786;22.760;2023-05-19T06:54:58;100279.21;;;10.64;88.79
58662;BME280;44432;49.786;22.760;2023-05-19T06:57:29;100280.23;;;10.66;88.57
58662;BME280;44432;49.786;22.760;2023-05-19T06:59:59;100276.05;;;10.65;88.58
58662;BME280;44432;49.786;22.760;2023-05-19T07:02:30;100278.73;;;10.64;88.53
58662;BME280;44432;49.786;22.760;2023-05-19T07:05:01;100279.75;;;10.65;88.20
58662;BME280;44432;49.786;22.760;2023-05-19T07:07:32;100279.36;;;10.63;88.02
58662;BME280;44432;49.786;22.760;2023-05-19T07:10:03;100279.91;;;10.66;88.08
58662;BME280;44432;49.786;22.760;2023-05-19T07:12:34;100278.60;;;10.68;88.22
58662;BME280;44432;49.786;22.760;2023-05-19T07:15:06;100278.25;;;10.66;87.84
58662;BME280;44432;49.786;22.760;2023-05-19T07:17:36;100275.52;;;10.68;88.46
58662;BME280;44432;49.786;22.760;2023-05-19T07:20:09;100275.58;;;10.71;88.11
58662;BME280;44432;49.786;22.760;2023-05-19T07:22:40;100274.15;;;10.73;88.08
58662;BME280;44432;49.786;22.760;2023-05-19T07:25:10;100270.63;;;10.79;88.12
58662;BME280;44432;49.786;22.760;2023-05-19T07:27:41;100269.84;;;10.83;87.53
58662;BME280;44432;49.786;22.760;2023-05-19T07:30:13;100267.00;;;10.87;87.44
58662;BME280;44432;49.786;22.760;2023-05-19T07:32:44;100269.67;;;10.97;87.79
58662;BME280;44432;49.786;22.760;2023-05-19T07:35:14;100267.96;;;11.05;87.68
58662;BME280;44432;49.786;22.760;2023-05-19T07:37:45;100272.64;;;11.14;87.04
58662;BME280;44432;49.786;22.760;2023-05-19T07:40:15;100274.14;;;11.22;87.04
58662;BME280;44432;49.786;22.760;2023-05-19T07:42:46;100276.65;;;11.30;87.05
58662;BME280;44432;49.786;22.760;2023-05-19T07:45:17;100278.51;;;11.41;87.05
58662;BME280;44432;49.786;22.760;2023-05-19T07:47:48;100277.88;;;11.52;86.64
58662;BME280;44432;49.786;22.760;2023-05-19T07:50:18;100277.69;;;11.56;85.90
58662;BME280;44432;49.786;22.760;2023-05-19T07:52:49;100277.33;;;11.56;85.24
58662;BME280;44432;49.786;22.760;2023-05-19T07:55:20;100277.11;;;11.55;85.10
58662;BME280;44432;49.786;22.760;2023-05-19T07:57:51;100272.42;;;11.53;85.25
58662;BME280;44432;49.786;22.760;2023-05-19T08:00:22;100270.91;;;11.51;85.09
58662;BME280;44432;49.786;22.760;2023-05-19T08:02:52;100269.31;;;11.50;84.88
58662;BME280;44432;49.786;22.760;2023-05-19T08:05:25;100272.34;;;11.53;85.38
58662;BME280;44432;49.786;22.760;2023-05-19T08:07:55;100272.02;;;11.52;84.74
58662;BME280;44432;49.786;22.760;2023-05-19T08:10:27;100271.11;;;11.52;85.02
58662;BME280;44432;49.786;22.760;2023-05-19T08:12:57;100275.33;;;11.55;84.88
58662;BME280;44432;49.786;22.760;2023-05-19T08:15:28;100272.44;;;11.56;84.85
58662;BME280;44432;49.786;22.760;2023-05-19T08:17:59;100274.27;;;11.62;85.42
58662;BME280;44432;49.786;22.760;2023-05-19T08:20:30;100271.35;;;11.71;85.36
58662;BME280;44432;49.786;22.760;2023-05-19T08:23:00;100273.11;;;11.83;85.21
58662;BME280;44432;49.786;22.760;2023-05-19T08:25:31;100273.96;;;11.91;84.83
58662;BME280;44432;49.786;22.760;2023-05-19T08:28:02;100275.02;;;11.91;83.74
58662;BME280;44432;49.786;22.760;2023-05-19T08:30:32;100275.38;;;11.88;83.77
58662;BME280;44432;49.786;22.760;2023-05-19T08:33:03;100275.05;;;11.88;83.71
58662;BME280;44432;49.786;22.760;2023-05-19T08:35:34;100273.41;;;11.95;84.06
58662;BME280;44432;49.786;22.760;2023-05-19T08:38:05;100271.66;;;12.03;83.76
58662;BME280;44432;49.786;22.760;2023-05-19T08:40:37;100272.42;;;12.12;84.02
58662;BME280;44432;49.786;22.760;2023-05-19T08:43:10;100269.94;;;12.22;83.66
58662;BME280;44432;49.786;22.760;2023-05-19T08:45:44;100271.66;;;12.25;83.05
58662;BME280;44432;49.786;22.760;2023-05-19T08:48:17;100269.92;;;12.17;82.40
58662;BME280;44432;49.786;22.760;2023-05-19T08:50:54;100274.25;;;12.09;82.16
58662;BME280;44432;49.786;22.760;2023-05-19T08:53:34;100273.38;;;12.05;82.64
58662;BME280;44432;49.786;22.760;2023-05-19T08:56:10;100276.85;;;12.09;82.82
58662;BME280;44432;49.786;22.760;2023-05-19T08:58:41;100279.90;;;12.08;82.67
58662;BME280;44432;49.786;22.760;2023-05-19T09:01:14;100280.36;;;12.11;82.95
58662;BME280;44432;49.786;22.760;2023-05-19T09:03:46;100282.42;;;12.18;83.25
58662;BME280;44432;49.786;22.760;2023-05-19T09:06:17;100282.91;;;12.28;83.12
58662;BME280;44432;49.786;22.760;2023-05-19T09:08:48;100279.71;;;12.33;82.76
58662;BME280;44432;49.786;22.760;2023-05-19T09:11:21;100278.81;;;12.31;82.18
58662;BME280;44432;49.786;22.760;2023-05-19T09:13:55;100276.77;;;12.31;82.24
58662;BME280;44432;49.786;22.760;2023-05-19T09:16:25;100276.33;;;12.34;82.30
58662;BME280;44432;49.786;22.760;2023-05-19T09:18:57;100277.70;;;12.41;82.74
58662;BME280;44432;49.786;22.760;2023-05-19T09:21:30;100273.34;;;12.49;82.40
58662;BME280;44432;49.786;22.760;2023-05-19T09:24:04;100275.41;;;12.54;82.09
58662;BME280;44432;49.786;22.760;2023-05-19T09:26:39;100273.88;;;12.62;81.97
58662;BME280;44432;49.786;22.760;2023-05-19T09:29:14;100277.06;;;12.64;81.22
58662;BME280;44432;49.786;22.760;2023-05-19T09:31:49;100278.08;;;12.61;80.69
58662;BME280;44432;49.786;22.760;2023-05-19T09:34:21;100274.65;;;12.60;81.04
58662;BME280;44432;49.786;22.760;2023-05-19T09:36:53;100271.24;;;12.68;81.55
58662;BME280;44432;49.786;22.760;2023-05-19T09:39:26;100268.72;;;12.74;81.03
58662;BME280;44432;49.786;22.760;2023-05-19T09:41:57;100269.91;;;12.78;81.22
58662;BME280;44432;49.786;22.760;2023-05-19T09:44:27;100267.39;;;12.88;81.31
58662;BME280;44432;49.786;22.760;2023-05-19T09:46:58;100262.86;;;12.89;80.50
58662;BME280;44432;49.786;22.760;2023-05-19T09:49:30;100265.97;;;12.92;80.52
58662;BME280;44432;49.786;22.760;2023-05-19T09:52:03;100262.13;;;12.93;80.26
58662;BME280;44432;49.786;22.760;2023-05-19T09:54:32;100260.50;;;12.93;79.96
58662;BME280;44432;49.786;22.760;2023-05-19T09:57:04;100258.63;;;12.88;79.72
58662;BME280;44432;49.786;22.760;2023-05-19T09:59:35;100253.85;;;12.93;80.13
58662;BME280;44432;49.786;22.760;2023-05-19T10:02:12;100254.02;;;13.01;80.16
58662;BME280;44432;49.786;22.760;2023-05-19T10:04:45;100255.65;;;13.12;80.47
58662;BME280;44432;49.786;22.760;2023-05-19T10:07:16;100259.62;;;13.30;80.69
58662;BME280;44432;49.786;22.760;2023-05-19T10:09:49;100258.66;;;13.45;80.15
58662;BME280;44432;49.786;22.760;2023-05-19T10:12:21;100253.46;;;13.57;79.95
58662;BME280;44432;49.786;22.760;2023-05-19T10:14:53;100253.38;;;13.72;79.93
58662;BME280;44432;49.786;22.760;2023-05-19T10:17:25;100253.98;;;13.88;79.57
58662;BME280;44432;49.786;22.760;2023-05-19T10:19:57;100253.14;;;14.04;79.20
58662;BME280;44432;49.786;22.760;2023-05-19T10:22:29;100253.61;;;14.17;78.74
58662;BME280;44432;49.786;22.760;2023-05-19T10:25:00;100254.78;;;14.28;78.46
58662;BME280;44432;49.786;22.760;2023-05-19T10:27:32;100257.92;;;14.36;77.80
58662;BME280;44432;49.786;22.760;2023-05-19T10:30:07;100251.58;;;14.41;77.49
58662;BME280;44432;49.786;22.760;2023-05-19T10:32:41;100252.16;;;14.49;77.64
58662;BME280;44432;49.786;22.760;2023-05-19T10:35:34;100253.85;;;14.60;77.26
58662;BME280;44432;49.786;22.760;2023-05-19T10:38:18;100251.70;;;14.70;77.09
58662;BME280;44432;49.786;22.760;2023-05-19T10:41:01;100252.11;;;14.77;76.79
58662;BME280;44432;49.786;22.760;2023-05-19T10:43:45;100250.78;;;14.85;76.38
58662;BME280;44432;49.786;22.760;2023-05-19T10:46:18;100247.02;;;14.94;76.30
58662;BME280;44432;49.786;22.760;2023-05-19T10:48:52;100243.03;;;15.03;76.32
58662;BME280;44432;49.786;22.760;2023-05-19T10:51:28;100241.83;;;15.14;76.10
58662;BME280;44432;49.786;22.760;2023-05-19T10:54:02;100243.59;;;15.23;75.40
58662;BME280;44432;49.786;22.760;2023-05-19T10:56:35;100244.16;;;15.27;74.94
58662;BME280;44432;49.786;22.760;2023-05-19T10:59:31;100246.13;;;15.31;74.82
58662;BME280;44432;49.786;22.760;2023-05-19T11:02:05;100243.38;;;15.36;74.48
58662;BME280;44432;49.786;22.760;2023-05-19T11:04:46;100244.39;;;15.42;74.62
58662;BME280;44432;49.786;22.760;2023-05-19T11:07:19;100243.02;;;15.48;74.26
58662;BME280;44432;49.786;22.760;2023-05-19T11:09:51;100245.48;;;15.47;73.48
58662;BME280;44432;49.786;22.760;2023-05-19T11:12:22;100247.25;;;15.42;73.14
58662;BME280;44432;49.786;22.760;2023-05-19T11:14:54;100246.99;;;15.30;73.02
58662;BME280;44432;49.786;22.760;2023-05-19T11:17:27;100248.59;;;15.26;73.37
58662;BME280;44432;49.786;22.760;2023-05-19T11:19:58;100248.00;;;15.28;73.37
58662;BME280;44432;49.786;22.760;2023-05-19T11:22:29;100246.45;;;15.28;73.48
58662;BME280;44432;49.786;22.760;2023-05-19T11:25:05;100244.61;;;15.18;72.90
58662;BME280;44432;49.786;22.760;2023-05-19T11:27:37;100244.86;;;15.14;73.23
58662;BME280;44432;49.786;22.760;2023-05-19T11:30:11;100239.63;;;15.12;73.20
58662;BME280;44432;49.786;22.760;2023-05-19T11:32:46;100244.42;;;15.12;73.12
58662;BME280;44432;49.786;22.760;2023-05-19T11:35:18;100241.70;;;15.15;73.24
58662;BME280;44432;49.786;22.760;2023-05-19T11:37:50;100234.31;;;15.17;73.01
58662;BME280;44432;49.786;22.760;2023-05-19T11:40:23;100241.29;;;15.05;71.64
58662;BME280;44432;49.786;22.760;2023-05-19T11:42:55;100240.34;;;14.86;71.83
58662;BME280;44432;49.786;22.760;2023-05-19T11:45:26;100245.80;;;14.77;72.19
58662;BME280;44432;49.786;22.760;2023-05-19T11:47:58;100244.90;;;14.72;72.72
58662;BME280;44432;49.786;22.760;2023-05-19T11:50:29;100249.60;;;14.78;72.75
58662;BME280;44432;49.786;22.760;2023-05-19T11:53:00;100244.36;;;14.67;72.20
58662;BME280;44432;49.786;22.760;2023-05-19T11:55:31;100242.42;;;14.63;72.64
58662;BME280;44432;49.786;22.760;2023-05-19T11:58:03;100242.47;;;14.69;73.23
58662;BME280;44432;49.786;22.760;2023-05-19T12:00:39;100246.25;;;14.78;73.30
58662;BME280;44432;49.786;22.760;2023-05-19T12:03:10;100248.17;;;14.89;73.41
58662;BME280;44432;49.786;22.760;2023-05-19T12:05:43;100252.11;;;14.96;72.82
58662;BME280;44432;49.786;22.760;2023-05-19T12:08:16;100244.20;;;14.89;72.26
58662;BME280;44432;49.786;22.760;2023-05-19T12:10:50;100243.71;;;14.83;72.43
58662;BME280;44432;49.786;22.760;2023-05-19T12:13:23;100243.08;;;14.82;73.21
58662;BME280;44432;49.786;22.760;2023-05-19T12:15:57;100242.78;;;14.92;73.78
58662;BME280;44432;49.786;22.760;2023-05-19T12:18:30;100247.91;;;15.06;74.05
58662;BME280;44432;49.786;22.760;2023-05-19T12:21:01;100250.50;;;15.23;73.77
58662;BME280;44432;49.786;22.760;2023-05-19T12:23:32;100249.98;;;15.34;73.43
58662;BME280;44432;49.786;22.760;2023-05-19T12:26:04;100249.30;;;15.37;72.73
58662;BME280;44432;49.786;22.760;2023-05-19T12:28:35;100247.84;;;15.40;72.81
58662;BME280;44432;49.786;22.760;2023-05-19T12:31:07;100247.08;;;15.43;72.38
58662;BME280;44432;49.786;22.760;2023-05-19T12:33:37;100253.45;;;15.48;72.68
58662;BME280;44432;49.786;22.760;2023-05-19T12:36:09;100253.79;;;15.50;72.32
58662;BME280;44432;49.786;22.760;2023-05-19T12:38:41;100255.16;;;15.53;72.16
58662;BME280;44432;49.786;22.760;2023-05-19T12:41:12;100253.27;;;15.54;72.07
58662;BME280;44432;49.786;22.760;2023-05-19T12:43:43;100254.10;;;15.62;72.35
58662;BME280;44432;49.786;22.760;2023-05-19T12:46:14;100254.30;;;15.69;72.22
58662;BME280;44432;49.786;22.760;2023-05-19T12:48:45;100247.97;;;15.71;71.95
58662;BME280;44432;49.786;22.760;2023-05-19T12:51:20;100252.67;;;15.70;71.09
58662;BME280;44432;49.786;22.760;2023-05-19T12:53:51;100252.56;;;15.59;70.57
58662;BME280;44432;49.786;22.760;2023-05-19T12:56:23;100251.66;;;15.47;70.65
58662;BME280;44432;49.786;22.760;2023-05-19T12:58:53;100250.55;;;15.40;70.88
58662;BME280;44432;49.786;22.760;2023-05-19T13:01:24;100247.64;;;15.26;70.65
58662;BME280;44432;49.786;22.760;2023-05-19T13:03:55;100245.61;;;15.20;71.51
58662;BME280;44432;49.786;22.760;2023-05-19T13:06:25;100244.29;;;15.26;71.95
58662;BME280;44432;49.786;22.760;2023-05-19T13:08:56;100247.41;;;15.33;72.31
58662;BME280;44432;49.786;22.760;2023-05-19T13:11:27;100246.88;;;15.38;71.66